This is the latest recevied weather packets stored in our database for station/object 2E0RGX-13. If no packets are shown the sender has not sent any weather packets the latest 10 day(s).
| Time | Temp. | Humidity | Pressure | Rain* | Wind** | Luminosity | Snow |
|---|---|---|---|---|---|---|---|
| 1777821523 | 18.33° C | 58% | 1005.7 hPa | 0 mm | - | 1 W/m² | - |
| 1777821219 | 18.33° C | 59% | 1005.6 hPa | 0 mm | - | 1 W/m² | - |
| 1777820915 | 18.89° C | 59% | 1005.5 hPa | 0 mm | - | 1 W/m² | - |
| 1777820611 | 18.89° C | 58% | 1005.6 hPa | 0 mm | - | 1 W/m² | - |
| 1777820307 | 19.44° C | 57% | 1005.7 hPa | 0 mm | - | 2 W/m² | - |
| 1777820003 | 19.44° C | 55% | 1005.6 hPa | 0 mm | - | 3 W/m² | - |
| 1777819699 | 19.44° C | 55% | 1005.7 hPa | 0 mm | - | 4 W/m² | - |
| 1777819395 | 19.44° C | 55% | 1005.6 hPa | 0 mm | - | 5 W/m² | - |
| 1777819091 | 18.89° C | 57% | 1005.7 hPa | 0 mm | - | 2 W/m² | - |
| 1777818787 | 18.33° C | 59% | 1005.7 hPa | 0 mm | - | 2 W/m² | - |
| 1777818483 | 18.33° C | 59% | 1005.6 hPa | 0 mm | - | 2 W/m² | - |
| 1777818179 | 18.89° C | 57% | 1005.7 hPa | 0 mm | - | 3 W/m² | - |
| 1777817875 | 18.33° C | 59% | 1005.6 hPa | 0 mm | - | 2 W/m² | - |
| 1777817571 | 18.89° C | 59% | 1005.8 hPa | 0 mm | - | 3 W/m² | - |
| 1777817267 | 18.33° C | 59% | 1005.6 hPa | 0 mm | - | 2 W/m² | - |
| 1777816963 | 18.33° C | 59% | 1005.8 hPa | 0 mm | - | 2 W/m² | - |
| 1777816659 | 18.33° C | 59% | 1005.8 hPa | 0 mm | - | 2 W/m² | - |
| 1777816355 | 18.33° C | 59% | 1005.6 hPa | 0 mm | - | 1 W/m² | - |
| 1777816052 | 18.33° C | 60% | 1005.8 hPa | 0 mm | - | 2 W/m² | - |
| 1777815748 | 19.44° C | 57% | 1005.7 hPa | 0 mm | - | 2 W/m² | - |
| 1777815444 | 18.89° C | 58% | 1005.8 hPa | 0 mm | - | 3 W/m² | - |
| 1777815140 | 18.89° C | 57% | 1005.7 hPa | 0 mm | - | 2 W/m² | - |
| 1777814836 | 18.33° C | 59% | 1005.6 hPa | 0 mm | - | 3 W/m² | - |
| 1777814532 | 18.33° C | 59% | 1005.7 hPa | 0 mm | - | 3 W/m² | - |
| 1777814228 | 18.33° C | 60% | 1006 hPa | 0 mm | - | 2 W/m² | - |
* Rain latest hour (hover to see other rain measurements)
** Current wind speed in m/s (hover to see current wind gust speed)